sensor_id;sensor_type;location;lat;lon;timestamp;temperature;humidity
21039;DHT22;10678;51.002;4.786;2022-08-03T00:01:37;22.50;99.90
21039;DHT22;10678;51.002;4.786;2022-08-03T00:04:04;22.40;99.90
21039;DHT22;10678;51.002;4.786;2022-08-03T00:06:29;22.40;99.90
21039;DHT22;10678;51.002;4.786;2022-08-03T00:08:55;22.30;99.90
21039;DHT22;10678;51.002;4.786;2022-08-03T00:11:20;22.30;99.90
21039;DHT22;10678;51.002;4.786;2022-08-03T00:13:46;22.30;99.90
21039;DHT22;10678;51.002;4.786;2022-08-03T00:16:12;22.20;99.90
21039;DHT22;10678;51.002;4.786;2022-08-03T00:18:38;22.20;99.90
21039;DHT22;10678;51.002;4.786;2022-08-03T00:21:03;22.20;99.90
21039;DHT22;10678;51.002;4.786;2022-08-03T00:23:29;22.20;99.90
21039;DHT22;10678;51.002;4.786;2022-08-03T00:25:55;22.10;99.90
21039;DHT22;10678;51.002;4.786;2022-08-03T00:28:21;22.10;99.90
21039;DHT22;10678;51.002;4.786;2022-08-03T00:30:47;22.10;99.90
21039;DHT22;10678;51.002;4.786;2022-08-03T00:33:12;22.10;99.90
21039;DHT22;10678;51.002;4.786;2022-08-03T00:35:38;22.10;99.90
21039;DHT22;10678;51.002;4.786;2022-08-03T00:38:04;22.00;99.90
21039;DHT22;10678;51.002;4.786;2022-08-03T00:40:29;22.00;99.90
21039;DHT22;10678;51.002;4.786;2022-08-03T00:42:57;22.00;99.90
21039;DHT22;10678;51.002;4.786;2022-08-03T00:45:28;22.00;99.90
21039;DHT22;10678;51.002;4.786;2022-08-03T00:47:55;22.00;99.90
21039;DHT22;10678;51.002;4.786;2022-08-03T00:50:22;22.00;99.90
21039;DHT22;10678;51.002;4.786;2022-08-03T00:52:50;21.90;99.90
21039;DHT22;10678;51.002;4.786;2022-08-03T00:55:16;21.90;99.90
21039;DHT22;10678;51.002;4.786;2022-08-03T00:57:42;21.90;99.90
21039;DHT22;10678;51.002;4.786;2022-08-03T01:00:10;21.90;99.90
21039;DHT22;10678;51.002;4.786;2022-08-03T01:02:37;21.90;99.90
21039;DHT22;10678;51.002;4.786;2022-08-03T01:05:03;21.90;99.90
21039;DHT22;10678;51.002;4.786;2022-08-03T01:10:03;21.90;99.90
21039;DHT22;10678;51.002;4.786;2022-08-03T01:15:31;21.90;99.90
21039;DHT22;10678;51.002;4.786;2022-08-03T01:18:23;21.90;99.90
21039;DHT22;10678;51.002;4.786;2022-08-03T01:20:53;21.80;99.90
21039;DHT22;10678;51.002;4.786;2022-08-03T01:26:41;21.80;99.90
21039;DHT22;10678;51.002;4.786;2022-08-03T01:30:07;21.70;99.90
21039;DHT22;10678;51.002;4.786;2022-08-03T01:32:17;21.70;99.90
21039;DHT22;10678;51.002;4.786;2022-08-03T01:34:51;21.70;99.90
21039;DHT22;10678;51.002;4.786;2022-08-03T01:37:25;21.60;99.90
21039;DHT22;10678;51.002;4.786;2022-08-03T01:39:54;21.60;99.90
21039;DHT22;10678;51.002;4.786;2022-08-03T01:42:22;21.60;99.90
21039;DHT22;10678;51.002;4.786;2022-08-03T01:44:51;21.60;99.90
21039;DHT22;10678;51.002;4.786;2022-08-03T01:47:19;21.60;99.90
21039;DHT22;10678;51.002;4.786;2022-08-03T01:49:45;21.60;99.90
21039;DHT22;10678;51.002;4.786;2022-08-03T01:52:13;21.60;99.90
21039;DHT22;10678;51.002;4.786;2022-08-03T01:54:44;21.50;99.90
21039;DHT22;10678;51.002;4.786;2022-08-03T01:57:12;21.50;99.90
21039;DHT22;10678;51.002;4.786;2022-08-03T01:59:39;21.50;99.90
21039;DHT22;10678;51.002;4.786;2022-08-03T02:02:07;21.60;99.90
21039;DHT22;10678;51.002;4.786;2022-08-03T02:04:36;21.50;99.90
21039;DHT22;10678;51.002;4.786;2022-08-03T02:07:02;21.50;99.90
21039;DHT22;10678;51.002;4.786;2022-08-03T02:09:29;21.50;99.90
21039;DHT22;10678;51.002;4.786;2022-08-03T02:11:56;21.50;99.90
21039;DHT22;10678;51.002;4.786;2022-08-03T02:14:22;21.40;99.90
21039;DHT22;10678;51.002;4.786;2022-08-03T02:16:48;21.40;99.90
21039;DHT22;10678;51.002;4.786;2022-08-03T02:19:15;21.30;99.90
21039;DHT22;10678;51.002;4.786;2022-08-03T02:21:43;21.30;99.90
21039;DHT22;10678;51.002;4.786;2022-08-03T02:24:10;21.30;99.90
21039;DHT22;10678;51.002;4.786;2022-08-03T02:26:37;21.10;99.90
21039;DHT22;10678;51.002;4.786;2022-08-03T02:29:14;21.10;99.90
21039;DHT22;10678;51.002;4.786;2022-08-03T02:31:42;21.10;99.90
21039;DHT22;10678;51.002;4.786;2022-08-03T02:34:13;21.10;99.90
21039;DHT22;10678;51.002;4.786;2022-08-03T02:36:41;21.10;99.90
21039;DHT22;10678;51.002;4.786;2022-08-03T02:39:10;21.10;99.90
21039;DHT22;10678;51.002;4.786;2022-08-03T02:41:46;21.00;99.90
21039;DHT22;10678;51.002;4.786;2022-08-03T02:44:13;21.00;99.90
21039;DHT22;10678;51.002;4.786;2022-08-03T02:46:44;21.00;99.90
21039;DHT22;10678;51.002;4.786;2022-08-03T02:49:13;21.00;99.90
21039;DHT22;10678;51.002;4.786;2022-08-03T02:51:40;20.90;99.90
21039;DHT22;10678;51.002;4.786;2022-08-03T02:54:07;21.00;99.90
21039;DHT22;10678;51.002;4.786;2022-08-03T02:56:34;20.80;99.90
21039;DHT22;10678;51.002;4.786;2022-08-03T02:59:00;20.90;99.90
21039;DHT22;10678;51.002;4.786;2022-08-03T03:01:28;20.90;99.90
21039;DHT22;10678;51.002;4.786;2022-08-03T03:03:56;20.90;99.90
21039;DHT22;10678;51.002;4.786;2022-08-03T03:06:23;20.90;99.90
21039;DHT22;10678;51.002;4.786;2022-08-03T03:08:50;20.90;99.90
21039;DHT22;10678;51.002;4.786;2022-08-03T03:11:18;20.80;99.90
21039;DHT22;10678;51.002;4.786;2022-08-03T03:13:45;20.80;99.90
21039;DHT22;10678;51.002;4.786;2022-08-03T03:16:13;20.80;99.90
21039;DHT22;10678;51.002;4.786;2022-08-03T03:18:40;20.70;99.90
21039;DHT22;10678;51.002;4.786;2022-08-03T03:21:08;20.70;99.90
21039;DHT22;10678;51.002;4.786;2022-08-03T03:23:36;20.70;99.90
21039;DHT22;10678;51.002;4.786;2022-08-03T03:26:03;20.70;99.90
21039;DHT22;10678;51.002;4.786;2022-08-03T03:28:30;20.70;99.90
21039;DHT22;10678;51.002;4.786;2022-08-03T03:30:56;20.60;99.90
21039;DHT22;10678;51.002;4.786;2022-08-03T03:33:22;20.70;99.90
21039;DHT22;10678;51.002;4.786;2022-08-03T03:35:48;20.70;99.90
21039;DHT22;10678;51.002;4.786;2022-08-03T03:38:14;20.70;99.90
21039;DHT22;10678;51.002;4.786;2022-08-03T03:40:40;20.70;99.90
21039;DHT22;10678;51.002;4.786;2022-08-03T03:43:07;20.60;99.90
21039;DHT22;10678;51.002;4.786;2022-08-03T03:45:34;20.60;99.90
21039;DHT22;10678;51.002;4.786;2022-08-03T03:48:03;20.50;99.90
21039;DHT22;10678;51.002;4.786;2022-08-03T03:50:30;20.50;99.90
21039;DHT22;10678;51.002;4.786;2022-08-03T03:52:56;20.50;99.90
21039;DHT22;10678;51.002;4.786;2022-08-03T03:55:22;20.50;99.90
21039;DHT22;10678;51.002;4.786;2022-08-03T03:57:48;20.50;99.90
21039;DHT22;10678;51.002;4.786;2022-08-03T04:00:15;20.50;99.90
21039;DHT22;10678;51.002;4.786;2022-08-03T04:02:40;20.50;99.90
21039;DHT22;10678;51.002;4.786;2022-08-03T04:05:08;20.40;99.90
21039;DHT22;10678;51.002;4.786;2022-08-03T04:08:08;20.40;99.90
21039;DHT22;10678;51.002;4.786;2022-08-03T04:11:13;20.40;99.90
21039;DHT22;10678;51.002;4.786;2022-08-03T04:14:02;20.40;99.90
21039;DHT22;10678;51.002;4.786;2022-08-03T04:16:33;20.30;99.90
21039;DHT22;10678;51.002;4.786;2022-08-03T04:19:09;20.20;99.90
21039;DHT22;10678;51.002;4.786;2022-08-03T04:21:40;20.20;99.90
21039;DHT22;10678;51.002;4.786;2022-08-03T04:24:09;20.20;99.90
21039;DHT22;10678;51.002;4.786;2022-08-03T04:26:38;20.10;99.90
21039;DHT22;10678;51.002;4.786;2022-08-03T04:29:06;20.10;99.90
21039;DHT22;10678;51.002;4.786;2022-08-03T04:31:33;20.10;99.90
21039;DHT22;10678;51.002;4.786;2022-08-03T04:33:59;20.10;99.90
21039;DHT22;10678;51.002;4.786;2022-08-03T04:36:28;20.10;99.90
21039;DHT22;10678;51.002;4.786;2022-08-03T04:39:03;20.20;99.90
21039;DHT22;10678;51.002;4.786;2022-08-03T04:41:30;20.00;99.90
21039;DHT22;10678;51.002;4.786;2022-08-03T04:43:57;20.00;99.90
21039;DHT22;10678;51.002;4.786;2022-08-03T04:46:34;20.10;99.90
21039;DHT22;10678;51.002;4.786;2022-08-03T04:49:01;20.10;99.90
21039;DHT22;10678;51.002;4.786;2022-08-03T04:51:27;20.20;99.90
21039;DHT22;10678;51.002;4.786;2022-08-03T04:53:53;20.20;99.90
21039;DHT22;10678;51.002;4.786;2022-08-03T04:56:19;20.20;99.90
21039;DHT22;10678;51.002;4.786;2022-08-03T04:58:45;20.20;99.90
21039;DHT22;10678;51.002;4.786;2022-08-03T05:01:10;20.20;99.90
21039;DHT22;10678;51.002;4.786;2022-08-03T05:03:36;20.20;99.90
21039;DHT22;10678;51.002;4.786;2022-08-03T05:06:02;20.20;99.90
21039;DHT22;10678;51.002;4.786;2022-08-03T05:08:28;20.20;99.90
21039;DHT22;10678;51.002;4.786;2022-08-03T05:10:54;20.20;99.90
21039;DHT22;10678;51.002;4.786;2022-08-03T05:13:20;20.10;99.90
21039;DHT22;10678;51.002;4.786;2022-08-03T05:15:45;20.20;99.90
21039;DHT22;10678;51.002;4.786;2022-08-03T05:18:11;20.20;99.90
21039;DHT22;10678;51.002;4.786;2022-08-03T05:20:36;20.30;99.90
21039;DHT22;10678;51.002;4.786;2022-08-03T05:23:02;20.30;99.90
21039;DHT22;10678;51.002;4.786;2022-08-03T05:25:28;20.30;99.90
21039;DHT22;10678;51.002;4.786;2022-08-03T05:27:54;20.40;99.90
21039;DHT22;10678;51.002;4.786;2022-08-03T05:30:20;20.50;99.90
21039;DHT22;10678;51.002;4.786;2022-08-03T05:32:45;20.50;99.90
21039;DHT22;10678;51.002;4.786;2022-08-03T05:35:11;20.60;99.90
21039;DHT22;10678;51.002;4.786;2022-08-03T05:37:36;20.70;99.90
21039;DHT22;10678;51.002;4.786;2022-08-03T05:40:03;20.70;99.90
21039;DHT22;10678;51.002;4.786;2022-08-03T05:42:29;20.80;99.90
21039;DHT22;10678;51.002;4.786;2022-08-03T05:44:55;20.90;99.90
21039;DHT22;10678;51.002;4.786;2022-08-03T05:47:21;21.00;99.90
21039;DHT22;10678;51.002;4.786;2022-08-03T05:49:46;21.00;99.90
21039;DHT22;10678;51.002;4.786;2022-08-03T05:52:12;21.10;99.90
21039;DHT22;10678;51.002;4.786;2022-08-03T05:54:37;21.20;99.90
21039;DHT22;10678;51.002;4.786;2022-08-03T05:57:03;21.30;99.90
21039;DHT22;10678;51.002;4.786;2022-08-03T05:59:29;21.30;99.90
21039;DHT22;10678;51.002;4.786;2022-08-03T06:01:54;21.40;99.90
21039;DHT22;10678;51.002;4.786;2022-08-03T06:04:20;21.50;99.90
21039;DHT22;10678;51.002;4.786;2022-08-03T06:06:46;21.60;99.90
21039;DHT22;10678;51.002;4.786;2022-08-03T06:09:12;21.70;99.90
21039;DHT22;10678;51.002;4.786;2022-08-03T06:11:38;21.90;99.90
21039;DHT22;10678;51.002;4.786;2022-08-03T06:14:04;22.00;99.90
21039;DHT22;10678;51.002;4.786;2022-08-03T06:16:30;22.10;99.90
21039;DHT22;10678;51.002;4.786;2022-08-03T06:18:56;22.30;99.90
21039;DHT22;10678;51.002;4.786;2022-08-03T06:21:22;22.60;99.90
21039;DHT22;10678;51.002;4.786;2022-08-03T06:23:47;22.90;99.90
21039;DHT22;10678;51.002;4.786;2022-08-03T06:26:13;23.30;99.90
21039;DHT22;10678;51.002;4.786;2022-08-03T06:28:39;23.70;99.90
21039;DHT22;10678;51.002;4.786;2022-08-03T06:31:04;24.20;99.90
21039;DHT22;10678;51.002;4.786;2022-08-03T06:33:30;24.60;99.90
21039;DHT22;10678;51.002;4.786;2022-08-03T06:35:56;24.90;99.90
21039;DHT22;10678;51.002;4.786;2022-08-03T06:38:21;25.00;99.90
21039;DHT22;10678;51.002;4.786;2022-08-03T06:40:47;25.30;99.90
21039;DHT22;10678;51.002;4.786;2022-08-03T06:43:13;25.50;99.90
21039;DHT22;10678;51.002;4.786;2022-08-03T06:45:40;25.90;99.90
21039;DHT22;10678;51.002;4.786;2022-08-03T06:48:10;26.30;99.90
21039;DHT22;10678;51.002;4.786;2022-08-03T06:50:39;26.60;99.90
21039;DHT22;10678;51.002;4.786;2022-08-03T06:53:06;26.90;99.90
21039;DHT22;10678;51.002;4.786;2022-08-03T06:55:32;27.00;99.90
21039;DHT22;10678;51.002;4.786;2022-08-03T06:57:58;27.40;99.90
21039;DHT22;10678;51.002;4.786;2022-08-03T07:00:24;28.00;99.90
21039;DHT22;10678;51.002;4.786;2022-08-03T07:02:50;28.40;99.90
21039;DHT22;10678;51.002;4.786;2022-08-03T07:05:16;29.00;99.90
21039;DHT22;10678;51.002;4.786;2022-08-03T07:07:42;29.40;99.90
21039;DHT22;10678;51.002;4.786;2022-08-03T07:10:09;29.70;99.90
21039;DHT22;10678;51.002;4.786;2022-08-03T07:12:36;30.10;99.90
21039;DHT22;10678;51.002;4.786;2022-08-03T07:15:03;30.00;99.90
21039;DHT22;10678;51.002;4.786;2022-08-03T07:17:30;30.40;99.90
21039;DHT22;10678;51.002;4.786;2022-08-03T07:19:57;30.60;99.90
21039;DHT22;10678;51.002;4.786;2022-08-03T07:22:23;30.80;99.90
21039;DHT22;10678;51.002;4.786;2022-08-03T07:24:48;30.90;99.90
21039;DHT22;10678;51.002;4.786;2022-08-03T07:27:15;31.30;99.90
21039;DHT22;10678;51.002;4.786;2022-08-03T07:29:41;31.90;99.90
21039;DHT22;10678;51.002;4.786;2022-08-03T07:32:07;32.10;99.90
21039;DHT22;10678;51.002;4.786;2022-08-03T07:34:32;32.20;99.90
21039;DHT22;10678;51.002;4.786;2022-08-03T07:36:58;32.00;99.90
21039;DHT22;10678;51.002;4.786;2022-08-03T07:39:24;32.10;99.90
21039;DHT22;10678;51.002;4.786;2022-08-03T07:41:49;32.30;99.90
21039;DHT22;10678;51.002;4.786;2022-08-03T07:44:17;32.50;99.90
21039;DHT22;10678;51.002;4.786;2022-08-03T07:46:43;33.00;99.90
21039;DHT22;10678;51.002;4.786;2022-08-03T07:49:08;33.30;99.40
21039;DHT22;10678;51.002;4.786;2022-08-03T07:51:34;33.70;97.90
21039;DHT22;10678;51.002;4.786;2022-08-03T07:54:00;34.90;95.80
21039;DHT22;10678;51.002;4.786;2022-08-03T07:56:25;35.60;93.40
21039;DHT22;10678;51.002;4.786;2022-08-03T07:58:52;36.20;91.70
21039;DHT22;10678;51.002;4.786;2022-08-03T08:01:18;36.50;91.50
21039;DHT22;10678;51.002;4.786;2022-08-03T08:03:47;36.70;90.10
21039;DHT22;10678;51.002;4.786;2022-08-03T08:06:14;36.50;90.00
21039;DHT22;10678;51.002;4.786;2022-08-03T08:08:40;36.90;87.20
21039;DHT22;10678;51.002;4.786;2022-08-03T08:11:06;37.60;86.10
21039;DHT22;10678;51.002;4.786;2022-08-03T08:13:32;37.40;84.60
21039;DHT22;10678;51.002;4.786;2022-08-03T08:15:58;37.80;83.90
21039;DHT22;10678;51.002;4.786;2022-08-03T08:18:24;37.50;83.50
21039;DHT22;10678;51.002;4.786;2022-08-03T08:20:50;37.30;83.50
21039;DHT22;10678;51.002;4.786;2022-08-03T08:23:16;37.50;81.40
21039;DHT22;10678;51.002;4.786;2022-08-03T08:25:47;37.70;82.20
21039;DHT22;10678;51.002;4.786;2022-08-03T08:28:13;38.30;79.50
21039;DHT22;10678;51.002;4.786;2022-08-03T08:30:41;38.50;79.00
21039;DHT22;10678;51.002;4.786;2022-08-03T08:33:06;38.30;77.80
21039;DHT22;10678;51.002;4.786;2022-08-03T08:35:32;38.30;79.00
21039;DHT22;10678;51.002;4.786;2022-08-03T08:37:59;38.80;77.80
21039;DHT22;10678;51.002;4.786;2022-08-03T08:40:26;39.10;75.60
21039;DHT22;10678;51.002;4.786;2022-08-03T08:42:52;38.90;72.30
21039;DHT22;10678;51.002;4.786;2022-08-03T08:45:18;38.90;74.40
21039;DHT22;10678;51.002;4.786;2022-08-03T08:47:46;39.30;74.30
21039;DHT22;10678;51.002;4.786;2022-08-03T08:50:12;39.60;72.20
21039;DHT22;10678;51.002;4.786;2022-08-03T08:52:42;40.00;73.40
21039;DHT22;10678;51.002;4.786;2022-08-03T08:55:12;39.80;71.10
21039;DHT22;10678;51.002;4.786;2022-08-03T08:57:46;39.90;69.60
21039;DHT22;10678;51.002;4.786;2022-08-03T09:00:13;39.60;67.00
21039;DHT22;10678;51.002;4.786;2022-08-03T09:02:40;40.00;68.00
21039;DHT22;10678;51.002;4.786;2022-08-03T09:05:09;40.30;68.20
21039;DHT22;10678;51.002;4.786;2022-08-03T09:07:36;40.70;67.50
21039;DHT22;10678;51.002;4.786;2022-08-03T09:10:02;41.00;67.90
21039;DHT22;10678;51.002;4.786;2022-08-03T09:12:28;41.10;64.60
21039;DHT22;10678;51.002;4.786;2022-08-03T09:14:54;41.40;61.90
21039;DHT22;10678;51.002;4.786;2022-08-03T09:17:19;40.30;60.70
21039;DHT22;10678;51.002;4.786;2022-08-03T09:20:04;40.90;63.10
21039;DHT22;10678;51.002;4.786;2022-08-03T09:22:30;41.40;61.00
21039;DHT22;10678;51.002;4.786;2022-08-03T09:25:05;41.70;59.50
21039;DHT22;10678;51.002;4.786;2022-08-03T09:27:43;41.70;60.00
21039;DHT22;10678;51.002;4.786;2022-08-03T09:30:16;42.40;58.30
21039;DHT22;10678;51.002;4.786;2022-08-03T09:32:42;43.50;58.90
21039;DHT22;10678;51.002;4.786;2022-08-03T09:35:11;43.30;55.80
21039;DHT22;10678;51.002;4.786;2022-08-03T09:37:37;43.60;56.40
21039;DHT22;10678;51.002;4.786;2022-08-03T09:40:04;44.60;57.00
21039;DHT22;10678;51.002;4.786;2022-08-03T09:42:30;45.50;54.10
21039;DHT22;10678;51.002;4.786;2022-08-03T09:44:59;45.10;52.70
21039;DHT22;10678;51.002;4.786;2022-08-03T09:47:29;45.90;52.60
21039;DHT22;10678;51.002;4.786;2022-08-03T09:52:38;46.70;50.20
21039;DHT22;10678;51.002;4.786;2022-08-03T09:55:12;47.20;49.70
21039;DHT22;10678;51.002;4.786;2022-08-03T09:57:38;47.70;50.00
21039;DHT22;10678;51.002;4.786;2022-08-03T10:00:10;48.00;48.70
21039;DHT22;10678;51.002;4.786;2022-08-03T10:02:37;48.10;46.60
21039;DHT22;10678;51.002;4.786;2022-08-03T10:05:04;48.60;46.50
21039;DHT22;10678;51.002;4.786;2022-08-03T10:07:44;49.10;47.70
21039;DHT22;10678;51.002;4.786;2022-08-03T10:10:10;49.80;46.30
21039;DHT22;10678;51.002;4.786;2022-08-03T10:12:36;49.30;45.30
21039;DHT22;10678;51.002;4.786;2022-08-03T10:15:04;49.00;45.70
21039;DHT22;10678;51.002;4.786;2022-08-03T10:17:30;49.50;45.40
21039;DHT22;10678;51.002;4.786;2022-08-03T10:19:55;50.10;44.60
21039;DHT22;10678;51.002;4.786;2022-08-03T10:22:25;50.70;44.00
21039;DHT22;10678;51.002;4.786;2022-08-03T10:24:55;50.40;42.30
21039;DHT22;10678;51.002;4.786;2022-08-03T10:27:22;50.90;43.70
21039;DHT22;10678;51.002;4.786;2022-08-03T10:29:55;51.90;41.20
21039;DHT22;10678;51.002;4.786;2022-08-03T10:35:27;51.60;42.60
21039;DHT22;10678;51.002;4.786;2022-08-03T10:37:57;52.40;41.70
21039;DHT22;10678;51.002;4.786;2022-08-03T10:40:31;52.50;40.80
21039;DHT22;10678;51.002;4.786;2022-08-03T10:43:09;52.70;39.50
21039;DHT22;10678;51.002;4.786;2022-08-03T10:45:39;53.00;40.00
21039;DHT22;10678;51.002;4.786;2022-08-03T10:48:06;52.90;39.70
21039;DHT22;10678;51.002;4.786;2022-08-03T10:50:32;52.70;39.00
21039;DHT22;10678;51.002;4.786;2022-08-03T10:53:00;52.90;40.40
21039;DHT22;10678;51.002;4.786;2022-08-03T10:55:31;53.40;39.20
21039;DHT22;10678;51.002;4.786;2022-08-03T11:01:07;54.00;38.10
21039;DHT22;10678;51.002;4.786;2022-08-03T11:03:33;53.80;37.00
21039;DHT22;10678;51.002;4.786;2022-08-03T11:06:21;54.10;37.60
21039;DHT22;10678;51.002;4.786;2022-08-03T11:08:48;54.90;37.30
21039;DHT22;10678;51.002;4.786;2022-08-03T11:14:02;54.00;34.60
21039;DHT22;10678;51.002;4.786;2022-08-03T11:16:30;53.90;34.80
21039;DHT22;10678;51.002;4.786;2022-08-03T11:18:57;54.70;36.70
21039;DHT22;10678;51.002;4.786;2022-08-03T11:27:31;55.50;35.20
21039;DHT22;10678;51.002;4.786;2022-08-03T11:30:02;55.40;35.10
21039;DHT22;10678;51.002;4.786;2022-08-03T11:38:00;55.20;35.00
21039;DHT22;10678;51.002;4.786;2022-08-03T11:40:51;55.10;34.40
21039;DHT22;10678;51.002;4.786;2022-08-03T11:46:03;55.50;33.00
21039;DHT22;10678;51.002;4.786;2022-08-03T11:48:38;55.60;33.80
21039;DHT22;10678;51.002;4.786;2022-08-03T11:51:06;55.50;33.20
21039;DHT22;10678;51.002;4.786;2022-08-03T11:53:32;55.10;34.20
21039;DHT22;10678;51.002;4.786;2022-08-03T11:55:59;55.40;34.50
21039;DHT22;10678;51.002;4.786;2022-08-03T11:58:28;54.60;34.50
21039;DHT22;10678;51.002;4.786;2022-08-03T12:01:12;55.40;34.10
21039;DHT22;10678;51.002;4.786;2022-08-03T12:03:37;55.90;33.50
21039;DHT22;10678;51.002;4.786;2022-08-03T12:06:08;55.70;31.70
21039;DHT22;10678;51.002;4.786;2022-08-03T12:08:34;55.20;33.30
21039;DHT22;10678;51.002;4.786;2022-08-03T12:11:02;53.30;32.50
21039;DHT22;10678;51.002;4.786;2022-08-03T12:13:41;52.60;34.00
21039;DHT22;10678;51.002;4.786;2022-08-03T12:16:07;52.80;33.40
21039;DHT22;10678;51.002;4.786;2022-08-03T12:18:34;53.60;33.80
21039;DHT22;10678;51.002;4.786;2022-08-03T12:21:08;54.40;34.40
21039;DHT22;10678;51.002;4.786;2022-08-03T12:23:35;53.60;33.40
21039;DHT22;10678;51.002;4.786;2022-08-03T12:26:09;54.80;34.40
21039;DHT22;10678;51.002;4.786;2022-08-03T12:28:35;55.50;32.00
21039;DHT22;10678;51.002;4.786;2022-08-03T12:31:06;54.50;32.40
21039;DHT22;10678;51.002;4.786;2022-08-03T12:33:53;55.10;32.50
21039;DHT22;10678;51.002;4.786;2022-08-03T12:36:18;55.20;32.40
21039;DHT22;10678;51.002;4.786;2022-08-03T12:39:03;54.20;34.80
21039;DHT22;10678;51.002;4.786;2022-08-03T12:41:37;54.00;32.80
21039;DHT22;10678;51.002;4.786;2022-08-03T12:44:04;51.60;34.80
21039;DHT22;10678;51.002;4.786;2022-08-03T12:49:14;51.50;34.60
21039;DHT22;10678;51.002;4.786;2022-08-03T12:54:26;51.50;32.40
21039;DHT22;10678;51.002;4.786;2022-08-03T12:57:04;49.80;35.70
21039;DHT22;10678;51.002;4.786;2022-08-03T12:59:32;47.20;36.80
21039;DHT22;10678;51.002;4.786;2022-08-03T13:01:58;44.40;42.30
21039;DHT22;10678;51.002;4.786;2022-08-03T13:04:29;45.70;40.30
21039;DHT22;10678;51.002;4.786;2022-08-03T13:07:04;48.00;39.30
21039;DHT22;10678;51.002;4.786;2022-08-03T13:09:39;48.70;38.30
21039;DHT22;10678;51.002;4.786;2022-08-03T13:12:14;49.80;38.70
21039;DHT22;10678;51.002;4.786;2022-08-03T13:14:41;50.10;37.50
21039;DHT22;10678;51.002;4.786;2022-08-03T13:17:07;50.10;37.20
21039;DHT22;10678;51.002;4.786;2022-08-03T13:19:34;51.20;36.50
21039;DHT22;10678;51.002;4.786;2022-08-03T13:24:37;52.50;35.00
21039;DHT22;10678;51.002;4.786;2022-08-03T13:27:03;53.10;35.30
21039;DHT22;10678;51.002;4.786;2022-08-03T13:29:31;53.60;34.40
21039;DHT22;10678;51.002;4.786;2022-08-03T13:31:56;51.70;32.50
21039;DHT22;10678;51.002;4.786;2022-08-03T13:34:22;49.40;37.00
21039;DHT22;10678;51.002;4.786;2022-08-03T13:36:48;49.20;36.80
21039;DHT22;10678;51.002;4.786;2022-08-03T13:39:13;49.20;37.70
21039;DHT22;10678;51.002;4.786;2022-08-03T13:41:39;48.60;37.60
21039;DHT22;10678;51.002;4.786;2022-08-03T13:44:04;47.10;38.40
21039;DHT22;10678;51.002;4.786;2022-08-03T13:46:30;46.80;38.60
21039;DHT22;10678;51.002;4.786;2022-08-03T13:48:55;46.00;39.40
21039;DHT22;10678;51.002;4.786;2022-08-03T13:51:21;44.80;41.20
21039;DHT22;10678;51.002;4.786;2022-08-03T13:53:47;44.50;42.60
21039;DHT22;10678;51.002;4.786;2022-08-03T13:56:12;44.90;42.20
21039;DHT22;10678;51.002;4.786;2022-08-03T13:58:38;45.50;42.00
21039;DHT22;10678;51.002;4.786;2022-08-03T14:01:04;46.20;41.40
21039;DHT22;10678;51.002;4.786;2022-08-03T14:03:30;46.50;39.30
21039;DHT22;10678;51.002;4.786;2022-08-03T14:05:55;46.30;38.90
21039;DHT22;10678;51.002;4.786;2022-08-03T14:08:21;46.50;40.20
21039;DHT22;10678;51.002;4.786;2022-08-03T14:10:47;45.30;39.50
21039;DHT22;10678;51.002;4.786;2022-08-03T14:13:13;45.00;41.70
21039;DHT22;10678;51.002;4.786;2022-08-03T14:15:40;44.90;42.00
21039;DHT22;10678;51.002;4.786;2022-08-03T14:18:07;44.50;41.50
21039;DHT22;10678;51.002;4.786;2022-08-03T14:20:33;43.90;42.00
21039;DHT22;10678;51.002;4.786;2022-08-03T14:22:59;43.00;42.40
21039;DHT22;10678;51.002;4.786;2022-08-03T14:25:25;41.70;43.30
21039;DHT22;10678;51.002;4.786;2022-08-03T14:27:50;41.40;45.10
21039;DHT22;10678;51.002;4.786;2022-08-03T14:30:16;40.90;45.40
21039;DHT22;10678;51.002;4.786;2022-08-03T14:32:42;40.50;46.00
21039;DHT22;10678;51.002;4.786;2022-08-03T14:35:08;39.90;46.80
21039;DHT22;10678;51.002;4.786;2022-08-03T14:37:34;38.80;47.10
21039;DHT22;10678;51.002;4.786;2022-08-03T14:40:00;38.30;47.80
21039;DHT22;10678;51.002;4.786;2022-08-03T14:42:25;37.50;48.90
21039;DHT22;10678;51.002;4.786;2022-08-03T14:44:51;36.80;49.00
21039;DHT22;10678;51.002;4.786;2022-08-03T14:47:17;37.00;50.20
21039;DHT22;10678;51.002;4.786;2022-08-03T14:49:42;36.90;50.40
21039;DHT22;10678;51.002;4.786;2022-08-03T14:52:08;37.00;50.50
21039;DHT22;10678;51.002;4.786;2022-08-03T14:54:34;37.00;50.50
21039;DHT22;10678;51.002;4.786;2022-08-03T14:57:00;37.00;51.00
21039;DHT22;10678;51.002;4.786;2022-08-03T14:59:26;36.80;51.00
21039;DHT22;10678;51.002;4.786;2022-08-03T15:01:52;36.50;51.00
21039;DHT22;10678;51.002;4.786;2022-08-03T15:04:20;36.30;51.50
21039;DHT22;10678;51.002;4.786;2022-08-03T15:06:46;36.00;51.90
21039;DHT22;10678;51.002;4.786;2022-08-03T15:09:12;36.00;51.70
21039;DHT22;10678;51.002;4.786;2022-08-03T15:11:38;35.80;52.80
21039;DHT22;10678;51.002;4.786;2022-08-03T15:14:03;35.60;52.20
21039;DHT22;10678;51.002;4.786;2022-08-03T15:16:29;35.50;53.40
21039;DHT22;10678;51.002;4.786;2022-08-03T15:18:55;35.20;52.60
21039;DHT22;10678;51.002;4.786;2022-08-03T15:21:22;35.30;53.20
21039;DHT22;10678;51.002;4.786;2022-08-03T15:23:48;35.20;52.60
21039;DHT22;10678;51.002;4.786;2022-08-03T15:26:13;35.30;53.20
21039;DHT22;10678;51.002;4.786;2022-08-03T15:28:39;35.20;53.40
21039;DHT22;10678;51.002;4.786;2022-08-03T15:31:05;35.00;52.90
21039;DHT22;10678;51.002;4.786;2022-08-03T15:33:31;35.00;53.70
21039;DHT22;10678;51.002;4.786;2022-08-03T15:35:56;35.20;53.50
21039;DHT22;10678;51.002;4.786;2022-08-03T15:38:24;35.10;53.40
21039;DHT22;10678;51.002;4.786;2022-08-03T15:40:50;34.90;54.70
21039;DHT22;10678;51.002;4.786;2022-08-03T15:43:19;34.60;53.60
21039;DHT22;10678;51.002;4.786;2022-08-03T15:45:45;34.70;53.80
21039;DHT22;10678;51.002;4.786;2022-08-03T15:48:10;34.80;53.40
21039;DHT22;10678;51.002;4.786;2022-08-03T15:50:36;34.90;53.50
21039;DHT22;10678;51.002;4.786;2022-08-03T15:53:02;34.90;54.10
21039;DHT22;10678;51.002;4.786;2022-08-03T15:55:28;34.40;53.80
21039;DHT22;10678;51.002;4.786;2022-08-03T15:57:54;34.20;54.90
21039;DHT22;10678;51.002;4.786;2022-08-03T16:00:20;34.20;55.60
21039;DHT22;10678;51.002;4.786;2022-08-03T16:02:45;34.30;55.70
21039;DHT22;10678;51.002;4.786;2022-08-03T16:05:11;34.30;54.80
21039;DHT22;10678;51.002;4.786;2022-08-03T16:07:37;34.30;55.80
21039;DHT22;10678;51.002;4.786;2022-08-03T16:10:15;34.40;55.40
21039;DHT22;10678;51.002;4.786;2022-08-03T16:12:41;34.40;56.20
21039;DHT22;10678;51.002;4.786;2022-08-03T16:15:08;34.30;55.70
21039;DHT22;10678;51.002;4.786;2022-08-03T16:17:34;34.20;56.00